Time;durP1;ratioP1;P1;durP2;ratioP2;P2;SDS_P1;SDS_P2;PMS_P1;PMS_P2;Temp;Humidity;BMP_temperature;BMP_pressure;BME280_temperature;BME280_humidity;BME280_pressure;Samples;Min_cycle;Max_cycle;Signal;HPM_P1;HPM_P2
2023/03/30 02:01:13;;;;;;;14.70;5.03;;;;;;;;;;4682393;28;20083;-67
2023/03/30 02:03:41;;;;;;;9.18;4.28;;;;;;;;;;4264909;33;20045;-67
2023/03/30 02:06:12;;;;;;;10.30;4.35;;;;;;;;;;4265127;33;20057;-68
2023/03/30 02:08:39;;;;;;;13.02;4.95;;;;;;;;;;4234556;33;20058;-67
2023/03/30 02:11:12;;;;;;;14.65;5.55;;;;;;;;;;4236013;33;20054;-68
2023/03/30 02:13:39;;;;;;;14.45;4.62;;;;;;;;;;4235074;33;20439;-67
2023/03/30 02:16:08;;;;;;;22.23;5.53;;;;;;;;;;4235086;33;20039;-70
2023/03/30 02:18:37;;;;;;;15.30;4.57;;;;;;;;;;4234170;33;20081;-68
2023/03/30 02:21:04;;;;;;;12.43;5.57;;;;;;;;;;4234713;33;20043;-67
2023/03/30 02:23:33;;;;;;;19.25;6.55;;;;;;;;;;4236524;33;20058;-68
2023/03/30 02:25:59;;;;;;;16.60;5.60;;;;;;;;;;4205563;34;20061;-68
2023/03/30 02:28:26;;;;;;;11.57;4.70;;;;;;;;;;4206343;34;20051;-68
2023/03/30 02:30:53;;;;;;;14.07;5.37;;;;;;;;;;4217486;33;20213;-67
2023/03/30 02:33:24;;;;;;;13.48;4.72;;;;;;;;;;4208535;34;20089;-68
2023/03/30 02:36:02;;;;;;;12.10;5.82;;;;;;;;;;4178474;34;20402;-70
2023/03/30 02:38:38;;;;;;;18.35;5.22;;;;;;;;;;4179547;34;20942;-68
2023/03/30 02:41:19;;;;;;;12.65;5.12;;;;;;;;;;4179061;34;20079;-68
2023/03/30 02:43:54;;;;;;;17.60;5.43;;;;;;;;;;4178118;34;20118;-68
2023/03/30 02:46:43;;;;;;;10.60;4.85;;;;;;;;;;4180534;34;20051;-68
2023/03/30 02:49:33;;;;;;;11.70;4.60;;;;;;;;;;4178510;34;20071;-71
2023/03/30 02:52:20;;;;;;;9.55;5.12;;;;;;;;;;4173228;34;20048;-68
2023/03/30 02:54:49;;;;;;;12.23;4.45;;;;;;;;;;4164533;34;20056;-69
2023/03/30 02:57:19;;;;;;;11.80;4.97;;;;;;;;;;4173985;34;20069;-68
2023/03/30 02:59:53;;;;;;;12.68;4.93;;;;;;;;;;4160239;34;20109;-68
2023/03/30 03:02:27;;;;;;;15.32;4.37;;;;;;;;;;4164600;34;20057;-70
2023/03/30 03:04:55;;;;;;;8.32;4.57;;;;;;;;;;4165621;34;20051;-68
2023/03/30 03:07:23;;;;;;;13.90;4.82;;;;;;;;;;4175726;34;20043;-68
2023/03/30 03:09:50;;;;;;;6.95;3.90;;;;;;;;;;4179029;34;20048;-69
2023/03/30 03:12:16;;;;;;;7.65;4.03;;;;;;;;;;4186575;34;20039;-70
2023/03/30 03:14:44;;;;;;;20.10;4.93;;;;;;;;;;4191926;34;20055;-68
2023/03/30 03:17:12;;;;;;;12.52;4.78;;;;;;;;;;4196529;34;20824;-70
2023/03/30 03:19:38;;;;;;;7.28;3.78;;;;;;;;;;4203351;34;20116;-69
2023/03/30 03:22:05;;;;;;;10.45;4.03;;;;;;;;;;4224096;33;20079;-68
2023/03/30 03:24:32;;;;;;;10.43;5.10;;;;;;;;;;4208101;34;20046;-70
2023/03/30 03:27:01;;;;;;;12.20;5.07;;;;;;;;;;4209643;34;21041;-69
2023/03/30 03:29:28;;;;;;;8.38;4.72;;;;;;;;;;4181805;34;20052;-69
2023/03/30 03:31:54;;;;;;;5.68;3.58;;;;;;;;;;4209223;34;20043;-68
2023/03/30 03:34:21;;;;;;;8.52;4.22;;;;;;;;;;4210393;34;20845;-69
2023/03/30 03:36:53;;;;;;;9.95;3.83;;;;;;;;;;4207725;34;20069;-70
2023/03/30 03:39:20;;;;;;;9.35;4.05;;;;;;;;;;4195444;34;20047;-68
2023/03/30 03:41:47;;;;;;;11.57;4.25;;;;;;;;;;4195314;34;20051;-68
2023/03/30 03:44:13;;;;;;;17.37;4.93;;;;;;;;;;4194625;34;20039;-68
2023/03/30 03:46:40;;;;;;;14.05;4.18;;;;;;;;;;4189420;34;20065;-71
2023/03/30 03:49:06;;;;;;;20.25;4.75;;;;;;;;;;4180397;34;20445;-69
2023/03/30 03:51:34;;;;;;;12.93;4.57;;;;;;;;;;4154330;34;20056;-69
2023/03/30 03:54:00;;;;;;;8.48;3.65;;;;;;;;;;4154943;34;20058;-68
2023/03/30 03:56:27;;;;;;;10.00;5.03;;;;;;;;;;4176810;34;20095;-69
2023/03/30 03:58:54;;;;;;;11.35;5.30;;;;;;;;;;4167171;34;20048;-71
2023/03/30 04:01:20;;;;;;;7.82;5.15;;;;;;;;;;4166994;34;20056;-69
2023/03/30 04:03:47;;;;;;;10.65;4.47;;;;;;;;;;4171371;34;20082;-68
2023/03/30 04:06:13;;;;;;;11.18;4.82;;;;;;;;;;4172630;34;20074;-69
2023/03/30 04:08:39;;;;;;;12.50;4.43;;;;;;;;;;4181553;34;20055;-68
2023/03/30 04:11:08;;;;;;;12.52;4.10;;;;;;;;;;4191359;34;20059;-71
2023/03/30 04:13:41;;;;;;;11.12;4.37;;;;;;;;;;4196587;34;20386;-69
2023/03/30 04:16:08;;;;;;;16.52;4.85;;;;;;;;;;4195224;34;20086;-68
2023/03/30 04:18:35;;;;;;;6.55;3.60;;;;;;;;;;4181426;34;20050;-68
2023/03/30 04:21:03;;;;;;;8.10;4.68;;;;;;;;;;4167545;34;20060;-68
2023/03/30 04:23:32;;;;;;;16.15;4.75;;;;;;;;;;4184265;34;20047;-68
2023/03/30 04:26:02;;;;;;;12.77;4.30;;;;;;;;;;4198003;34;20046;-68
2023/03/30 04:28:28;;;;;;;5.68;4.03;;;;;;;;;;4197347;34;20079;-67
2023/03/30 04:31:02;;;;;;;10.32;4.25;;;;;;;;;;4208334;34;20039;-67
2023/03/30 04:33:29;;;;;;;11.35;4.80;;;;;;;;;;4208534;34;20061;-68
2023/03/30 04:35:56;;;;;;;15.30;3.90;;;;;;;;;;4208791;34;20051;-68
2023/03/30 04:38:24;;;;;;;7.82;3.90;;;;;;;;;;4210093;34;20060;-69
2023/03/30 04:40:51;;;;;;;7.15;3.87;;;;;;;;;;4208844;34;20081;-68
2023/03/30 04:43:19;;;;;;;18.55;4.53;;;;;;;;;;4179942;34;20391;-67
2023/03/30 04:45:49;;;;;;;16.37;4.18;;;;;;;;;;4181875;34;20751;-67
2023/03/30 04:48:17;;;;;;;10.27;3.58;;;;;;;;;;4181237;34;20047;-67
2023/03/30 04:50:49;;;;;;;11.57;4.65;;;;;;;;;;4166670;34;20066;-70
2023/03/30 04:53:17;;;;;;;9.73;4.00;;;;;;;;;;4167744;34;20044;-67
2023/03/30 04:55:47;;;;;;;15.02;4.10;;;;;;;;;;4167276;34;20073;-67
2023/03/30 04:58:15;;;;;;;10.82;4.15;;;;;;;;;;4178610;34;20095;-67
2023/03/30 05:00:42;;;;;;;8.77;3.60;;;;;;;;;;4194541;34;20437;-68
2023/03/30 05:03:08;;;;;;;9.55;4.55;;;;;;;;;;4193320;34;20051;-70
2023/03/30 05:05:37;;;;;;;7.32;4.32;;;;;;;;;;4181510;34;20825;-67
2023/03/30 05:08:03;;;;;;;9.52;4.80;;;;;;;;;;4214496;34;20038;-67
2023/03/30 05:10:30;;;;;;;10.10;4.10;;;;;;;;;;4194703;34;20370;-67
2023/03/30 05:12:56;;;;;;;14.73;5.70;;;;;;;;;;4180233;34;20051;-67
2023/03/30 05:15:23;;;;;;;11.57;5.12;;;;;;;;;;4203941;34;20055;-68
2023/03/30 05:17:49;;;;;;;17.08;5.05;;;;;;;;;;4209393;34;20236;-67
2023/03/30 05:20:17;;;;;;;11.32;4.65;;;;;;;;;;4208070;34;20081;-67
2023/03/30 05:22:49;;;;;;;17.60;5.70;;;;;;;;;;4208093;34;20409;-67
2023/03/30 05:25:23;;;;;;;10.85;5.65;;;;;;;;;;4205581;34;20076;-67
2023/03/30 05:27:49;;;;;;;17.05;5.00;;;;;;;;;;4208543;34;20046;-67
2023/03/30 05:30:16;;;;;;;14.32;4.97;;;;;;;;;;4207392;34;20087;-67
2023/03/30 05:32:42;;;;;;;10.68;4.68;;;;;;;;;;4207297;34;20399;-68
2023/03/30 05:35:10;;;;;;;15.00;5.68;;;;;;;;;;4207759;34;20101;-67
2023/03/30 05:37:37;;;;;;;12.90;5.40;;;;;;;;;;4204506;34;20834;-68
2023/03/30 05:40:08;;;;;;;14.07;5.72;;;;;;;;;;4206995;34;20718;-67
2023/03/30 05:42:35;;;;;;;13.45;6.20;;;;;;;;;;4240486;33;20399;-66
2023/03/30 05:45:01;;;;;;;11.93;5.15;;;;;;;;;;4264259;33;20045;-68
2023/03/30 05:47:29;;;;;;;13.18;5.65;;;;;;;;;;4265422;33;20365;-69
2023/03/30 05:49:55;;;;;;;8.90;4.95;;;;;;;;;;4265341;33;20065;-68
2023/03/30 05:52:22;;;;;;;18.02;5.00;;;;;;;;;;4263677;33;20116;-67
2023/03/30 05:54:50;;;;;;;10.02;5.15;;;;;;;;;;4262790;33;20493;-67
2023/03/30 05:57:17;;;;;;;10.85;5.18;;;;;;;;;;4248374;33;20462;-67
2023/03/30 05:59:43;;;;;;;7.43;3.87;;;;;;;;;;4248382;33;20259;-69
2023/03/30 06:02:11;;;;;;;11.55;5.28;;;;;;;;;;4262001;33;20067;-66
2023/03/30 06:04:38;;;;;;;20.50;5.55;;;;;;;;;;4264641;33;20067;-67
2023/03/30 06:07:05;;;;;;;12.40;5.85;;;;;;;;;;4263058;33;20061;-67
2023/03/30 06:09:31;;;;;;;12.50;5.20;;;;;;;;;;4235597;33;20050;-68
2023/03/30 06:11:59;;;;;;;10.95;4.55;;;;;;;;;;4233304;33;20060;-70
2023/03/30 06:14:25;;;;;;;9.60;4.75;;;;;;;;;;4218651;33;20173;-68
2023/03/30 06:16:53;;;;;;;8.00;4.57;;;;;;;;;;4220916;33;20076;-69
2023/03/30 06:19:20;;;;;;;7.80;3.85;;;;;;;;;;4220790;33;20076;-67
2023/03/30 06:21:46;;;;;;;10.50;4.82;;;;;;;;;;4219886;33;20064;-66
2023/03/30 06:24:14;;;;;;;16.33;6.18;;;;;;;;;;4220242;33;20166;-69
2023/03/30 06:26:41;;;;;;;15.70;4.87;;;;;;;;;;4220356;33;20797;-66
2023/03/30 06:29:07;;;;;;;14.30;5.65;;;;;;;;;;4209317;33;20397;-68
2023/03/30 06:31:34;;;;;;;9.10;4.43;;;;;;;;;;4207094;34;20481;-67
2023/03/30 06:34:02;;;;;;;14.65;4.97;;;;;;;;;;4192693;34;20061;-66
2023/03/30 06:36:28;;;;;;;14.02;5.47;;;;;;;;;;4190472;34;20606;-67
2023/03/30 06:38:55;;;;;;;9.88;4.82;;;;;;;;;;4192119;34;20085;-67
2023/03/30 06:41:21;;;;;;;10.02;4.80;;;;;;;;;;4228497;33;20041;-69
2023/03/30 06:43:48;;;;;;;9.18;5.40;;;;;;;;;;4233573;33;20111;-67
2023/03/30 06:46:14;;;;;;;15.00;5.70;;;;;;;;;;4226987;33;20428;-69
2023/03/30 06:48:42;;;;;;;12.55;5.82;;;;;;;;;;4233408;33;20475;-67
2023/03/30 06:51:13;;;;;;;10.02;5.45;;;;;;;;;;4224986;33;20054;-67
2023/03/30 06:53:39;;;;;;;11.80;4.90;;;;;;;;;;4230811;33;20060;-67
2023/03/30 06:56:06;;;;;;;13.02;5.87;;;;;;;;;;4222235;33;20072;-67
2023/03/30 06:58:33;;;;;;;11.20;5.32;;;;;;;;;;4225271;33;20413;-68
2023/03/30 07:01:10;;;;;;;11.60;5.60;;;;;;;;;;4223975;33;20042;-66
2023/03/30 07:03:36;;;;;;;19.27;6.07;;;;;;;;;;4231157;33;20116;-68
2023/03/30 07:06:09;;;;;;;13.68;6.03;;;;;;;;;;4193670;33;20475;-69
2023/03/30 07:08:35;;;;;;;15.23;5.35;;;;;;;;;;4204537;34;20093;-67
2023/03/30 07:11:03;;;;;;;12.25;5.20;;;;;;;;;;4205983;34;20071;-68
2023/03/30 07:13:29;;;;;;;7.62;5.80;;;;;;;;;;4194264;34;20482;-67
2023/03/30 07:15:56;;;;;;;11.77;6.28;;;;;;;;;;4164099;34;20171;-68
2023/03/30 07:18:22;;;;;;;14.15;5.53;;;;;;;;;;4172183;34;20048;-68
2023/03/30 07:20:48;;;;;;;23.40;6.20;;;;;;;;;;4174398;34;20144;-68
2023/03/30 07:23:15;;;;;;;15.48;6.22;;;;;;;;;;4188747;34;20444;-67
2023/03/30 07:25:43;;;;;;;13.45;5.80;;;;;;;;;;4189795;34;20087;-68
2023/03/30 07:28:10;;;;;;;11.40;5.15;;;;;;;;;;4215957;34;20382;-71
2023/03/30 07:30:37;;;;;;;13.30;4.82;;;;;;;;;;4192873;34;20062;-69
2023/03/30 07:33:04;;;;;;;16.05;5.87;;;;;;;;;;4206403;34;20069;-67
2023/03/30 07:35:30;;;;;;;12.48;4.30;;;;;;;;;;4205883;34;20050;-66
2023/03/30 07:37:57;;;;;;;14.48;5.53;;;;;;;;;;4198250;34;20044;-66
2023/03/30 07:40:25;;;;;;;10.95;5.30;;;;;;;;;;4208581;34;20051;-69
2023/03/30 07:42:51;;;;;;;15.68;5.62;;;;;;;;;;4216855;34;20050;-66
2023/03/30 07:45:18;;;;;;;18.48;6.45;;;;;;;;;;4205113;34;20055;-66
2023/03/30 07:47:45;;;;;;;9.00;5.62;;;;;;;;;;4240694;33;20403;-67
2023/03/30 07:50:11;;;;;;;13.70;6.37;;;;;;;;;;4247918;33;20046;-66
2023/03/30 07:52:37;;;;;;;17.52;5.57;;;;;;;;;;4198659;34;20116;-67
2023/03/30 07:55:07;;;;;;;10.10;5.37;;;;;;;;;;4191744;34;20418;-67
2023/03/30 07:57:33;;;;;;;11.38;4.75;;;;;;;;;;4191779;34;20043;-67
2023/03/30 08:00:09;;;;;;;18.37;5.60;;;;;;;;;;4190473;34;20039;-67
2023/03/30 08:02:38;;;;;;;9.57;4.40;;;;;;;;;;4206147;34;20120;-67
2023/03/30 08:05:05;;;;;;;9.35;3.92;;;;;;;;;;4208765;34;20043;-68
2023/03/30 08:07:34;;;;;;;11.18;4.70;;;;;;;;;;4210035;34;20437;-68
2023/03/30 08:10:00;;;;;;;7.40;4.07;;;;;;;;;;4209349;34;20084;-67
2023/03/30 08:12:27;;;;;;;14.10;5.03;;;;;;;;;;4207136;34;20433;-68
2023/03/30 08:14:54;;;;;;;8.73;3.92;;;;;;;;;;4205804;34;20073;-68
2023/03/30 08:17:20;;;;;;;8.05;4.32;;;;;;;;;;4188233;34;20056;-68
2023/03/30 08:19:46;;;;;;;8.52;3.45;;;;;;;;;;4159643;34;20082;-69
2023/03/30 08:22:13;;;;;;;9.68;3.75;;;;;;;;;;4160207;34;20052;-68
2023/03/30 08:24:39;;;;;;;9.15;4.30;;;;;;;;;;4166332;34;20054;-67
2023/03/30 08:27:05;;;;;;;10.10;4.28;;;;;;;;;;4178866;34;20051;-68
2023/03/30 08:29:32;;;;;;;6.62;4.03;;;;;;;;;;4181113;34;20592;-69
2023/03/30 08:31:58;;;;;;;8.38;3.90;;;;;;;;;;4184399;34;20055;-68
2023/03/30 08:34:25;;;;;;;6.03;3.70;;;;;;;;;;4202006;34;20042;-68
2023/03/30 08:36:53;;;;;;;13.05;3.80;;;;;;;;;;4207659;34;20051;-68
2023/03/30 08:39:19;;;;;;;7.05;4.60;;;;;;;;;;4208862;34;20062;-67
2023/03/30 08:41:52;;;;;;;4.85;3.12;;;;;;;;;;4206802;34;20340;-67
2023/03/30 08:44:21;;;;;;;8.30;3.53;;;;;;;;;;4194295;34;20107;-70
2023/03/30 08:46:48;;;;;;;5.65;3.28;;;;;;;;;;4195246;34;20094;-67
2023/03/30 08:49:16;;;;;;;6.20;3.60;;;;;;;;;;4192083;34;20040;-67
2023/03/30 08:51:43;;;;;;;7.75;3.15;;;;;;;;;;4214281;34;20064;-67
2023/03/30 08:54:13;;;;;;;9.63;3.90;;;;;;;;;;4222987;34;20443;-67
2023/03/30 08:56:58;;;;;;;4.93;3.25;;;;;;;;;;4218154;34;20468;-69
2023/03/30 08:59:39;;;;;;;5.45;3.15;;;;;;;;;;4218451;34;20084;-66
2023/03/30 09:02:17;;;;;;;5.43;3.72;;;;;;;;;;4206926;34;20035;-70
2023/03/30 09:04:55;;;;;;;17.05;4.22;;;;;;;;;;4196500;34;20390;-68
2023/03/30 09:07:42;;;;;;;5.25;3.50;;;;;;;;;;4197521;34;20060;-68
2023/03/30 09:10:12;;;;;;;6.12;3.20;;;;;;;;;;4193642;34;20522;-68
2023/03/30 09:12:43;;;;;;;8.00;3.47;;;;;;;;;;4203570;34;20100;-68
2023/03/30 09:15:21;;;;;;;15.57;3.87;;;;;;;;;;4172253;34;20058;-69
2023/03/30 09:17:50;;;;;;;9.70;3.80;;;;;;;;;;4173744;34;21023;-69
2023/03/30 09:20:28;;;;;;;13.48;5.00;;;;;;;;;;4178755;34;20056;-69
2023/03/30 09:22:55;;;;;;;16.95;3.50;;;;;;;;;;4192866;34;20055;-69
2023/03/30 09:25:22;;;;;;;8.98;3.58;;;;;;;;;;4190023;34;20653;-69
2023/03/30 09:28:24;;;;;;;4.43;3.55;;;;;;;;;;4179955;34;20778;-68
2023/03/30 09:30:58;;;;;;;8.35;4.30;;;;;;;;;;4157130;34;20089;-71
2023/03/30 09:33:36;;;;;;;8.93;4.15;;;;;;;;;;4160708;34;20036;-69
2023/03/30 09:36:06;;;;;;;8.35;3.75;;;;;;;;;;4148469;34;20476;-70
2023/03/30 09:38:32;;;;;;;10.75;3.95;;;;;;;;;;4155016;34;20070;-69
2023/03/30 09:41:05;;;;;;;6.87;3.42;;;;;;;;;;4165499;34;20085;-69
2023/03/30 09:43:34;;;;;;;7.40;3.55;;;;;;;;;;4161145;34;20418;-69
2023/03/30 09:46:05;;;;;;;14.80;3.87;;;;;;;;;;4163264;34;20230;-71
2023/03/30 09:48:39;;;;;;;10.40;4.10;;;;;;;;;;4187865;34;20067;-69
2023/03/30 09:51:24;;;;;;;8.25;4.03;;;;;;;;;;4191653;34;20089;-68
2023/03/30 09:54:02;;;;;;;7.00;3.92;;;;;;;;;;4190826;34;20418;-70
2023/03/30 09:56:33;;;;;;;7.90;2.65;;;;;;;;;;4189395;34;20605;-69
2023/03/30 09:59:20;;;;;;;8.35;3.47;;;;;;;;;;4198092;34;20063;-69
2023/03/30 10:01:48;;;;;;;7.28;3.55;;;;;;;;;;4206178;34;20098;-71
2023/03/30 10:04:17;;;;;;;6.32;3.12;;;;;;;;;;4215438;33;20042;-68
2023/03/30 10:06:46;;;;;;;6.00;3.00;;;;;;;;;;4220560;33;20073;-69
2023/03/30 10:09:14;;;;;;;8.23;3.35;;;;;;;;;;4220754;33;20108;-69
2023/03/30 10:11:43;;;;;;;8.20;2.90;;;;;;;;;;4220698;34;20054;-69
2023/03/30 10:14:28;;;;;;;5.15;2.72;;;;;;;;;;4219775;33;20050;-69
2023/03/30 10:16:57;;;;;;;6.45;2.83;;;;;;;;;;4227049;33;20059;-68
2023/03/30 10:19:26;;;;;;;11.70;3.05;;;;;;;;;;4229627;33;20054;-68
2023/03/30 10:21:56;;;;;;;15.70;3.42;;;;;;;;;;4224980;33;20050;-71
2023/03/30 10:24:28;;;;;;;14.40;4.40;;;;;;;;;;4225224;33;20058;-68
2023/03/30 10:26:56;;;;;;;;;;;;;;;;;;4215080;33;20495;-68
2023/03/30 10:29:26;;;;;;;6.47;2.92;;;;;;;;;;4206540;34;20696;-68
2023/03/30 10:31:59;;;;;;;9.70;3.37;;;;;;;;;;4205546;34;20115;-69
2023/03/30 10:34:35;;;;;;;5.30;2.00;;;;;;;;;;4179251;34;20410;-70
2023/03/30 10:37:10;;;;;;;5.35;2.75;;;;;;;;;;4181620;34;20072;-68
2023/03/30 10:39:38;;;;;;;11.32;2.67;;;;;;;;;;4192426;34;20068;-71
2023/03/30 10:42:06;;;;;;;5.78;2.70;;;;;;;;;;4191702;34;20422;-69
2023/03/30 10:44:35;;;;;;;5.07;2.70;;;;;;;;;;4193556;34;20790;-68
2023/03/30 10:47:13;;;;;;;2.70;2.37;;;;;;;;;;4192747;34;20415;-68
2023/03/30 10:49:42;;;;;;;5.32;3.28;;;;;;;;;;4191705;34;20235;-70
2023/03/30 10:52:41;;;;;;;3.97;2.72;;;;;;;;;;4193387;34;20069;-70
2023/03/30 10:55:07;;;;;;;4.32;2.50;;;;;;;;;;4177412;34;20065;-71
2023/03/30 10:57:41;;;;;;;5.53;2.70;;;;;;;;;;4192224;34;20858;-69
2023/03/30 11:03:09;;;;;;;5.28;2.37;;;;;;;;;;4221863;28;20059;-69
2023/03/30 11:05:39;;;;;;;7.28;4.47;;;;;;;;;;4241152;33;20194;-69
2023/03/30 11:08:06;;;;;;;5.00;3.70;;;;;;;;;;4262846;33;20378;-69
2023/03/30 11:10:36;;;;;;;8.02;3.65;;;;;;;;;;4262222;33;20078;-70
2023/03/30 11:13:05;;;;;;;6.87;3.37;;;;;;;;;;4262830;33;20050;-69
2023/03/30 11:16:00;;;;;;;4.12;3.15;;;;;;;;;;4251074;33;20054;-71
2023/03/30 11:18:46;;;;;;;5.65;3.45;;;;;;;;;;4219839;33;20042;-69
2023/03/30 11:21:32;;;;;;;4.32;2.87;;;;;;;;;;4246774;33;20119;-69
2023/03/30 11:24:08;;;;;;;6.47;3.90;;;;;;;;;;4248799;33;20046;-68
2023/03/30 11:26:37;;;;;;;3.65;2.58;;;;;;;;;;4247837;33;20633;-70
2023/03/30 11:29:19;;;;;;;9.88;3.40;;;;;;;;;;4248710;33;20067;-68
2023/03/30 11:31:50;;;;;;;6.75;3.85;;;;;;;;;;4235512;33;20082;-70
2023/03/30 11:34:30;;;;;;;6.72;3.35;;;;;;;;;;4235402;33;20400;-69
2023/03/30 11:37:02;;;;;;;9.35;3.90;;;;;;;;;;4236417;33;20219;-69
2023/03/30 11:39:31;;;;;;;7.15;3.65;;;;;;;;;;4237337;33;20429;-68
2023/03/30 11:42:03;;;;;;;8.05;4.03;;;;;;;;;;4237570;33;20058;-69
2023/03/30 11:44:30;;;;;;;6.57;4.00;;;;;;;;;;4235789;33;20038;-73
2023/03/30 11:47:16;;;;;;;6.60;4.12;;;;;;;;;;4245910;33;20220;-69
2023/03/30 11:49:51;;;;;;;6.18;3.87;;;;;;;;;;4250972;33;20807;-69
2023/03/30 11:52:21;;;;;;;6.15;4.15;;;;;;;;;;4250512;33;20053;-69
2023/03/30 11:55:10;;;;;;;5.75;3.33;;;;;;;;;;4222817;33;20412;-68
2023/03/30 11:57:43;;;;;;;12.98;4.12;;;;;;;;;;4223528;33;20072;-69
2023/03/30 12:00:23;;;;;;;9.98;4.60;;;;;;;;;;4215534;33;20456;-68
2023/03/30 12:03:08;;;;;;;9.13;3.25;;;;;;;;;;4204636;34;20047;-68
2023/03/30 12:05:36;;;;;;;6.35;3.60;;;;;;;;;;4207378;34;20518;-70
2023/03/30 12:08:09;;;;;;;6.70;3.15;;;;;;;;;;4209406;34;20081;-69
2023/03/30 12:10:35;;;;;;;;;;;;;;;;;;4195440;34;20056;-69
2023/03/30 12:13:01;;;;;;;6.15;4.50;;;;;;;;;;4193570;34;20016;-68
2023/03/30 12:15:27;;;;;;;5.55;3.78;;;;;;;;;;4193128;34;20069;-70
2023/03/30 12:17:53;;;;;;;7.03;3.35;;;;;;;;;;4183455;34;20052;-69
2023/03/30 12:20:35;;;;;;;6.05;3.60;;;;;;;;;;4193401;34;20410;-69
2023/03/30 12:23:08;;;;;;;4.93;2.97;;;;;;;;;;4195245;34;20106;-68
2023/03/30 12:25:53;;;;;;;8.10;3.78;;;;;;;;;;4211475;33;20569;-68
2023/03/30 12:28:23;;;;;;;7.45;3.28;;;;;;;;;;4218149;33;20839;-68
2023/03/30 12:30:51;;;;;;;9.43;4.35;;;;;;;;;;4217771;33;20043;-69
2023/03/30 12:33:24;;;;;;;5.05;2.75;;;;;;;;;;4208050;33;20129;-70
2023/03/30 12:35:52;;;;;;;16.95;3.05;;;;;;;;;;4208948;34;20051;-69
2023/03/30 12:38:20;;;;;;;5.40;2.85;;;;;;;;;;4208809;34;20044;-69
2023/03/30 12:40:52;;;;;;;4.95;2.90;;;;;;;;;;4209971;33;20050;-69
2023/03/30 12:43:25;;;;;;;6.12;3.10;;;;;;;;;;4226431;33;20051;-71
2023/03/30 12:46:06;;;;;;;4.75;3.47;;;;;;;;;;4236581;33;20105;-69
2023/03/30 12:48:42;;;;;;;8.88;3.70;;;;;;;;;;4235977;33;20064;-68
2023/03/30 12:51:14;;;;;;;13.32;3.53;;;;;;;;;;4242108;33;20050;-67
2023/03/30 12:54:10;;;;;;;7.68;3.53;;;;;;;;;;4235996;33;20085;-68
2023/03/30 12:56:36;;;;;;;7.28;4.15;;;;;;;;;;4224557;33;20050;-72
2023/03/30 12:59:25;;;;;;;6.30;4.30;;;;;;;;;;4237905;33;20456;-68
2023/03/30 13:02:17;;;;;;;10.63;3.55;;;;;;;;;;4246555;33;20067;-69
2023/03/30 13:04:47;;;;;;;5.85;3.47;;;;;;;;;;4249250;33;20339;-67
2023/03/30 13:07:20;;;;;;;6.43;3.28;;;;;;;;;;4248549;33;20063;-68
2023/03/30 13:09:58;;;;;;;6.07;3.30;;;;;;;;;;4249346;33;20061;-68
2023/03/30 13:12:33;;;;;;;6.50;3.70;;;;;;;;;;4248266;33;20043;-70
2023/03/30 13:15:15;;;;;;;9.20;2.92;;;;;;;;;;4249119;33;20062;-68
2023/03/30 13:17:49;;;;;;;7.30;3.67;;;;;;;;;;4233627;33;20089;-71
2023/03/30 13:20:19;;;;;;;4.35;3.17;;;;;;;;;;4245065;33;20076;-68
2023/03/30 13:23:04;;;;;;;11.60;5.03;;;;;;;;;;4249830;33;20033;-68
2023/03/30 13:25:49;;;;;;;8.68;4.37;;;;;;;;;;4246138;33;20126;-71
2023/03/30 13:28:30;;;;;;;11.88;3.90;;;;;;;;;;4248313;33;20120;-68
2023/03/30 13:31:01;;;;;;;8.67;3.23;;;;;;;;;;4250460;33;20078;-70
2023/03/30 13:33:27;;;;;;;10.65;3.95;;;;;;;;;;4249493;33;20408;-69
2023/03/30 13:36:05;;;;;;;12.32;4.30;;;;;;;;;;4247407;33;20080;-67
2023/03/30 13:38:38;;;;;;;13.57;4.40;;;;;;;;;;4242970;33;21047;-67
2023/03/30 13:41:23;;;;;;;8.35;4.00;;;;;;;;;;4246965;33;20076;-68
2023/03/30 13:44:02;;;;;;;7.50;3.83;;;;;;;;;;4235202;33;20051;-69
2023/03/30 13:46:28;;;;;;;6.97;3.42;;;;;;;;;;4232316;33;20110;-71
2023/03/30 13:48:54;;;;;;;7.75;3.70;;;;;;;;;;4243886;33;20104;-67
2023/03/30 13:51:23;;;;;;;5.75;4.07;;;;;;;;;;4237699;33;20443;-68
2023/03/30 13:53:50;;;;;;;8.75;4.03;;;;;;;;;;4232218;33;20031;-68
2023/03/30 13:56:18;;;;;;;13.50;3.53;;;;;;;;;;4220937;33;20085;-68
2023/03/30 13:58:58;;;;;;;15.05;4.80;;;;;;;;;;4218403;33;20046;-71
2023/03/30 14:01:25;;;;;;;7.57;3.15;;;;;;;;;;4248339;33;20185;-67
2023/03/30 14:03:58;;;;;;;8.90;3.35;;;;;;;;;;4246455;33;20094;-68
2023/03/30 14:06:28;;;;;;;6.07;3.28;;;;;;;;;;4248967;33;20046;-70
2023/03/30 14:09:06;;;;;;;10.85;2.87;;;;;;;;;;4238511;33;20673;-67
2023/03/30 14:11:33;;;;;;;8.68;4.43;;;;;;;;;;4220526;33;20068;-68
2023/03/30 14:14:00;;;;;;;11.12;3.65;;;;;;;;;;4218469;33;20036;-67
2023/03/30 14:16:30;;;;;;;10.02;4.28;;;;;;;;;;4229161;33;20056;-69
2023/03/30 14:19:15;;;;;;;7.68;4.43;;;;;;;;;;4236696;33;20049;-68
2023/03/30 14:21:43;;;;;;;13.82;5.12;;;;;;;;;;4236087;33;20079;-68
2023/03/30 14:24:12;;;;;;;6.10;4.18;;;;;;;;;;4214162;34;20051;-69
2023/03/30 14:26:39;;;;;;;8.88;4.43;;;;;;;;;;4211107;34;20055;-67
2023/03/30 14:29:09;;;;;;;11.27;4.87;;;;;;;;;;4216158;33;20396;-68
2023/03/30 14:31:37;;;;;;;12.10;5.80;;;;;;;;;;4212489;34;20149;-67
2023/03/30 14:34:20;;;;;;;8.70;4.80;;;;;;;;;;4216500;33;20655;-66
2023/03/30 14:36:46;;;;;;;12.52;5.05;;;;;;;;;;4208281;34;20059;-70
2023/03/30 14:39:13;;;;;;;9.23;4.45;;;;;;;;;;4221293;33;20110;-67
2023/03/30 14:41:39;;;;;;;13.65;4.57;;;;;;;;;;4231527;33;20046;-66
2023/03/30 14:44:06;;;;;;;12.10;5.10;;;;;;;;;;4262827;33;20049;-67
2023/03/30 14:46:41;;;;;;;8.07;4.62;;;;;;;;;;4260733;33;20042;-68
2023/03/30 14:49:13;;;;;;;11.68;5.32;;;;;;;;;;4250651;33;20026;-68
2023/03/30 14:51:41;;;;;;;14.30;5.32;;;;;;;;;;4251348;33;20123;-68
2023/03/30 14:54:12;;;;;;;14.87;5.65;;;;;;;;;;4251659;33;20454;-71
2023/03/30 14:56:39;;;;;;;11.05;5.30;;;;;;;;;;4265115;33;20095;-68
2023/03/30 14:59:05;;;;;;;15.38;5.45;;;;;;;;;;4265074;33;20071;-68
2023/03/30 15:01:32;;;;;;;13.43;5.15;;;;;;;;;;4263380;33;20059;-68
2023/03/30 15:04:00;;;;;;;9.02;5.22;;;;;;;;;;4255232;33;20041;-68
2023/03/30 15:06:27;;;;;;;15.00;5.37;;;;;;;;;;4256780;33;20063;-69
2023/03/30 15:08:58;;;;;;;10.52;5.62;;;;;;;;;;4254885;33;20061;-68
2023/03/30 15:11:25;;;;;;;6.53;4.60;;;;;;;;;;4244837;33;20449;-68
2023/03/30 15:13:53;;;;;;;10.27;4.93;;;;;;;;;;4248575;33;20058;-69
2023/03/30 15:16:24;;;;;;;12.20;6.32;;;;;;;;;;4241932;33;20046;-68
2023/03/30 15:18:51;;;;;;;8.18;5.43;;;;;;;;;;4253688;33;20041;-68
2023/03/30 15:21:19;;;;;;;9.40;6.18;;;;;;;;;;4252997;33;20139;-67
2023/03/30 15:23:46;;;;;;;14.55;5.22;;;;;;;;;;4254049;33;20039;-69
2023/03/30 15:26:13;;;;;;;11.43;5.50;;;;;;;;;;4253270;33;20050;-68
2023/03/30 15:28:50;;;;;;;17.73;6.47;;;;;;;;;;4252315;33;20041;-69
2023/03/30 15:31:17;;;;;;;11.52;6.07;;;;;;;;;;4239328;33;20050;-68
2023/03/30 15:33:50;;;;;;;9.20;5.35;;;;;;;;;;4239213;33;20042;-68
2023/03/30 15:36:25;;;;;;;13.00;5.22;;;;;;;;;;4237361;33;20043;-68
2023/03/30 15:38:55;;;;;;;17.10;6.15;;;;;;;;;;4237864;33;20123;-69
2023/03/30 15:41:43;;;;;;;10.32;6.25;;;;;;;;;;4238214;33;20079;-68
2023/03/30 15:44:10;;;;;;;10.38;4.75;;;;;;;;;;4237316;33;20167;-71
2023/03/30 15:46:38;;;;;;;14.55;6.30;;;;;;;;;;4224433;33;20417;-68
2023/03/30 15:49:05;;;;;;;11.48;5.55;;;;;;;;;;4242503;33;20060;-67
2023/03/30 15:51:37;;;;;;;12.88;5.65;;;;;;;;;;4224410;33;20477;-68
2023/03/30 15:54:14;;;;;;;13.00;5.82;;;;;;;;;;4221170;33;20358;-68
2023/03/30 15:56:53;;;;;;;18.48;6.85;;;;;;;;;;4223315;33;20217;-67
2023/03/30 15:59:20;;;;;;;13.35;5.40;;;;;;;;;;4187752;34;20059;-68
2023/03/30 16:01:54;;;;;;;13.23;5.97;;;;;;;;;;4192701;34;20149;-68
2023/03/30 16:04:22;;;;;;;11.93;5.55;;;;;;;;;;4206157;34;20116;-67
2023/03/30 16:06:48;;;;;;;21.42;6.35;;;;;;;;;;4198908;34;20086;-69
2023/03/30 16:09:15;;;;;;;9.68;6.65;;;;;;;;;;4197034;34;20048;-69
2023/03/30 16:11:43;;;;;;;16.33;6.72;;;;;;;;;;4185107;34;20480;-68
2023/03/30 16:14:12;;;;;;;13.73;6.18;;;;;;;;;;4178034;34;20071;-70
2023/03/30 16:16:38;;;;;;;15.70;6.40;;;;;;;;;;4180509;34;20066;-68
2023/03/30 16:19:09;;;;;;;15.13;6.43;;;;;;;;;;4168811;34;20035;-69
2023/03/30 16:21:35;;;;;;;14.13;6.55;;;;;;;;;;4158473;34;20434;-67
2023/03/30 16:24:01;;;;;;;12.05;5.07;;;;;;;;;;4187650;34;20039;-70
2023/03/30 16:26:28;;;;;;;17.20;6.25;;;;;;;;;;4183358;34;20073;-71
2023/03/30 16:28:54;;;;;;;14.05;6.45;;;;;;;;;;4192515;34;20051;-69
2023/03/30 16:31:21;;;;;;;15.00;6.65;;;;;;;;;;4218897;33;20900;-68
2023/03/30 16:33:48;;;;;;;18.33;6.80;;;;;;;;;;4222224;33;20086;-69
2023/03/30 16:36:15;;;;;;;18.70;7.62;;;;;;;;;;4220912;33;20063;-68
2023/03/30 16:38:41;;;;;;;15.57;7.18;;;;;;;;;;4221372;33;20543;-70
2023/03/30 16:41:18;;;;;;;11.23;6.97;;;;;;;;;;4229213;33;20471;-68
2023/03/30 16:43:44;;;;;;;13.98;6.80;;;;;;;;;;4249361;33;20346;-68
2023/03/30 16:46:12;;;;;;;15.85;6.80;;;;;;;;;;4237945;33;20120;-70
2023/03/30 16:48:38;;;;;;;15.40;7.40;;;;;;;;;;4235773;33;20092;-68
2023/03/30 16:51:06;;;;;;;17.55;8.55;;;;;;;;;;4237370;33;20069;-68
2023/03/30 16:53:35;;;;;;;14.23;6.53;;;;;;;;;;4263113;33;20059;-68
2023/03/30 16:56:04;;;;;;;27.85;6.30;;;;;;;;;;4243861;33;20054;-68
2023/03/30 16:58:30;;;;;;;19.30;6.95;;;;;;;;;;4231437;33;20108;-69